createdAt,value
2022-08-02T00:00:47.130Z,99.90
2022-08-02T00:03:15.683Z,99.90
2022-08-02T00:05:53.143Z,99.90
2022-08-02T00:08:22.616Z,99.90
2022-08-02T00:10:53.985Z,99.90
2022-08-02T00:13:22.554Z,99.90
2022-08-02T00:15:52.651Z,99.90
2022-08-02T00:18:21.310Z,99.90
2022-08-02T00:20:49.912Z,99.90
2022-08-02T00:23:18.817Z,99.90
2022-08-02T00:25:54.760Z,99.90
2022-08-02T00:28:27.186Z,99.90
2022-08-02T00:30:58.726Z,99.90
2022-08-02T00:34:05.167Z,99.90
2022-08-02T00:36:17.153Z,99.90
2022-08-02T00:38:46.496Z,99.90
2022-08-02T00:41:17.044Z,99.90
2022-08-02T00:43:46.081Z,99.90
2022-08-02T00:46:16.881Z,99.90
2022-08-02T00:48:45.916Z,99.90
2022-08-02T00:51:15.391Z,99.90
2022-08-02T00:53:46.204Z,99.90
2022-08-02T00:56:14.642Z,99.90
2022-08-02T00:58:43.381Z,99.90
2022-08-02T01:01:12.088Z,99.90
2022-08-02T01:03:42.142Z,99.90
2022-08-02T01:06:11.140Z,99.90
2022-08-02T01:08:40.245Z,99.90
2022-08-02T01:11:09.280Z,99.90
2022-08-02T01:13:38.158Z,99.90
2022-08-02T01:16:14.395Z,99.90
2022-08-02T01:18:49.380Z,99.90
2022-08-02T01:21:49.016Z,99.90
2022-08-02T01:24:47.085Z,99.90
2022-08-02T01:27:31.024Z,99.90
2022-08-02T01:30:02.842Z,99.90
2022-08-02T01:32:36.838Z,99.90
2022-08-02T01:35:11.257Z,99.90
2022-08-02T01:37:45.761Z,99.90
2022-08-02T01:40:18.631Z,99.90
2022-08-02T01:42:50.629Z,99.90
2022-08-02T01:45:23.185Z,99.90
2022-08-02T01:47:53.572Z,99.90
2022-08-02T01:50:27.839Z,99.90
2022-08-02T01:53:01.254Z,99.90
2022-08-02T01:55:35.186Z,99.90
2022-08-02T01:58:26.131Z,99.90
2022-08-02T02:00:59.113Z,99.90
2022-08-02T02:03:30.537Z,99.90
2022-08-02T02:06:04.829Z,99.90
2022-08-02T02:08:39.743Z,99.90
2022-08-02T02:12:09.351Z,99.90
2022-08-02T02:14:00.152Z,99.90
2022-08-02T02:16:32.098Z,99.90
2022-08-02T02:19:02.993Z,99.90
2022-08-02T02:21:31.754Z,99.90
2022-08-02T02:24:00.934Z,99.90
2022-08-02T02:26:32.488Z,99.90
2022-08-02T02:29:08.954Z,99.90
2022-08-02T02:31:40.912Z,99.90
2022-08-02T02:34:13.243Z,99.90
2022-08-02T02:36:46.902Z,99.90
2022-08-02T02:39:17.183Z,99.90
2022-08-02T02:41:46.992Z,99.90
2022-08-02T02:44:19.848Z,99.90
2022-08-02T02:46:53.865Z,99.90
2022-08-02T02:49:23.407Z,99.90
2022-08-02T02:51:52.890Z,99.90
2022-08-02T02:54:30.361Z,99.90
2022-08-02T02:57:05.711Z,99.90
2022-08-02T02:59:36.190Z,99.90
2022-08-02T03:02:13.671Z,99.90
2022-08-02T03:04:55.696Z,99.90
2022-08-02T03:07:27.464Z,99.90
2022-08-02T03:09:57.607Z,99.90
2022-08-02T03:12:31.811Z,99.90
2022-08-02T03:15:01.920Z,99.90
2022-08-02T03:17:41.309Z,99.90
2022-08-02T03:20:12.798Z,99.90
2022-08-02T03:22:42.023Z,99.90
2022-08-02T03:25:11.425Z,99.90
2022-08-02T03:27:40.071Z,99.90
2022-08-02T03:30:10.376Z,99.90
2022-08-02T03:32:41.756Z,99.90
2022-08-02T03:35:13.073Z,99.90
2022-08-02T03:37:43.113Z,99.90
2022-08-02T03:40:14.434Z,99.90
2022-08-02T03:42:43.594Z,99.90
2022-08-02T03:45:13.786Z,99.90
2022-08-02T03:47:45.394Z,99.90
2022-08-02T03:50:14.599Z,99.90
2022-08-02T03:52:43.858Z,99.90
2022-08-02T03:55:13.878Z,99.90
2022-08-02T03:57:43.992Z,99.90
2022-08-02T04:00:16.824Z,99.90
2022-08-02T04:02:46.982Z,99.90
2022-08-02T04:05:16.254Z,99.90
2022-08-02T04:08:05.948Z,99.90
2022-08-02T04:10:54.930Z,99.90
2022-08-02T04:13:29.887Z,99.90
2022-08-02T04:16:06.186Z,99.90
2022-08-02T04:18:45.468Z,99.90
2022-08-02T04:21:21.226Z,99.90
2022-08-02T04:23:50.986Z,99.90
2022-08-02T04:26:26.932Z,99.90
2022-08-02T04:28:57.987Z,99.90
2022-08-02T04:31:30.149Z,99.90
2022-08-02T04:34:00.752Z,99.90
2022-08-02T04:36:30.823Z,99.90
2022-08-02T04:39:00.537Z,99.90
2022-08-02T04:41:42.367Z,99.90
2022-08-02T04:44:13.409Z,99.90
2022-08-02T04:46:42.722Z,99.90
2022-08-02T04:49:12.967Z,99.90
2022-08-02T04:51:43.677Z,99.90
2022-08-02T04:54:12.820Z,99.90
2022-08-02T04:56:42.319Z,99.90
2022-08-02T04:59:12.515Z,99.90
2022-08-02T05:01:42.548Z,99.90
2022-08-02T05:04:13.135Z,99.90
2022-08-02T05:06:41.807Z,99.90
2022-08-02T05:09:10.476Z,99.90
2022-08-02T05:11:38.964Z,99.90
2022-08-02T05:14:07.659Z,99.90
2022-08-02T05:16:36.585Z,99.90
2022-08-02T05:19:05.187Z,99.90
2022-08-02T05:21:35.084Z,99.90
2022-08-02T05:24:03.779Z,99.90
2022-08-02T05:26:32.248Z,99.90
2022-08-02T05:29:00.668Z,99.90
2022-08-02T05:31:29.335Z,99.90
2022-08-02T05:33:58.007Z,99.90
2022-08-02T05:36:26.554Z,99.90
2022-08-02T05:39:04.666Z,99.90
2022-08-02T05:41:33.868Z,99.90
2022-08-02T05:44:02.363Z,99.90
2022-08-02T05:46:31.066Z,99.90
2022-08-02T05:49:00.671Z,99.90
2022-08-02T05:51:36.248Z,99.90
2022-08-02T05:54:13.975Z,99.90
2022-08-02T05:56:49.100Z,99.90
2022-08-02T05:59:29.073Z,99.90
2022-08-02T06:02:03.414Z,99.90
2022-08-02T06:04:39.322Z,99.90
2022-08-02T06:07:11.239Z,99.90
2022-08-02T06:09:42.774Z,99.90
2022-08-02T06:12:14.772Z,99.90
2022-08-02T06:14:43.974Z,99.90
2022-08-02T06:17:13.410Z,99.90
2022-08-02T06:19:52.390Z,99.90
2022-08-02T06:22:32.953Z,99.90
2022-08-02T06:25:48.056Z,99.90
2022-08-02T06:28:01.604Z,99.90
2022-08-02T06:30:31.278Z,99.90
2022-08-02T06:33:02.314Z,99.90
2022-08-02T06:35:38.652Z,99.90
2022-08-02T06:38:09.212Z,99.90
2022-08-02T06:40:47.114Z,99.90
2022-08-02T06:43:22.170Z,99.90
2022-08-02T06:45:51.199Z,99.90
2022-08-02T06:48:19.924Z,99.90
2022-08-02T06:50:48.514Z,99.90
2022-08-02T06:53:17.085Z,99.90
2022-08-02T06:55:47.160Z,99.90
2022-08-02T06:58:15.815Z,99.90
2022-08-02T07:00:44.724Z,99.90
2022-08-02T07:03:13.743Z,99.90
2022-08-02T07:05:43.786Z,99.90
2022-08-02T07:08:12.472Z,99.90
2022-08-02T07:10:41.150Z,99.90
2022-08-02T07:13:12.388Z,99.90
2022-08-02T07:15:49.058Z,99.90
2022-08-02T07:18:18.587Z,99.90
2022-08-02T07:20:47.346Z,99.90
2022-08-02T07:23:16.153Z,99.90
2022-08-02T07:26:02.605Z,99.90
2022-08-02T07:28:33.704Z,99.90
2022-08-02T07:31:02.616Z,99.90
2022-08-02T07:33:38.041Z,99.90
2022-08-02T07:36:09.647Z,99.90
2022-08-02T07:38:40.702Z,99.90
2022-08-02T07:41:10.077Z,99.90
2022-08-02T07:43:41.444Z,99.90
2022-08-02T07:46:11.307Z,99.90
2022-08-02T07:48:39.869Z,99.90
2022-08-02T07:51:08.369Z,99.90
2022-08-02T07:53:50.084Z,99.90
2022-08-02T07:56:20.412Z,99.90
2022-08-02T07:58:55.682Z,99.90
2022-08-02T08:01:24.311Z,99.90
2022-08-02T08:03:52.871Z,99.90
2022-08-02T08:06:28.852Z,99.90
2022-08-02T08:08:57.993Z,99.90
2022-08-02T08:11:27.038Z,99.90
2022-08-02T08:13:57.032Z,99.90
2022-08-02T08:16:26.348Z,99.90
2022-08-02T08:18:54.885Z,99.90
2022-08-02T08:21:23.840Z,99.90
2022-08-02T08:23:52.338Z,99.90
2022-08-02T08:26:21.166Z,99.90
2022-08-02T08:28:49.882Z,99.90
2022-08-02T08:31:19.929Z,99.90
2022-08-02T08:33:48.371Z,99.90
2022-08-02T08:36:17.331Z,99.90
2022-08-02T08:38:45.885Z,99.90
2022-08-02T08:41:17.468Z,99.90
2022-08-02T08:43:51.416Z,99.90
2022-08-02T08:46:28.480Z,99.90
2022-08-02T08:49:01.612Z,99.90
2022-08-02T08:51:37.255Z,99.90
2022-08-02T08:54:08.672Z,99.90
2022-08-02T08:56:37.832Z,99.90
2022-08-02T08:59:06.704Z,99.90
2022-08-02T09:01:49.735Z,99.90
2022-08-02T09:04:20.250Z,99.90
2022-08-02T09:06:49.118Z,99.90
2022-08-02T09:09:17.758Z,99.90
2022-08-02T09:11:46.552Z,99.90
2022-08-02T09:14:28.418Z,99.90
2022-08-02T09:17:08.158Z,99.90
2022-08-02T09:19:37.317Z,99.90
2022-08-02T09:22:09.095Z,99.90
2022-08-02T09:24:46.579Z,99.90
2022-08-02T09:27:16.597Z,99.90
2022-08-02T09:32:48.216Z,99.90
2022-08-02T09:36:05.938Z,99.90
2022-08-02T09:38:23.342Z,99.90
2022-08-02T09:40:55.088Z,99.90
2022-08-02T09:43:35.925Z,99.90
2022-08-02T09:46:14.985Z,99.90
2022-08-02T09:48:56.092Z,99.90
2022-08-02T09:51:26.690Z,99.90
2022-08-02T09:54:07.903Z,99.90
2022-08-02T09:56:45.681Z,99.90
2022-08-02T09:59:15.137Z,99.90
2022-08-02T10:01:51.307Z,99.90
2022-08-02T10:04:34.051Z,99.90
2022-08-02T10:07:05.460Z,99.90
2022-08-02T10:09:34.837Z,99.90
2022-08-02T10:12:04.890Z,99.90
2022-08-02T10:14:35.789Z,99.90
2022-08-02T10:17:06.229Z,99.90
2022-08-02T10:20:00.361Z,99.90
2022-08-02T10:22:26.465Z,99.90
2022-08-02T10:24:55.653Z,99.90
2022-08-02T10:27:26.448Z,99.80
2022-08-02T10:29:59.191Z,99.90
2022-08-02T10:32:31.199Z,99.30
2022-08-02T10:35:18.735Z,99.20
2022-08-02T10:37:55.384Z,97.90
2022-08-02T10:40:26.569Z,97.90
2022-08-02T10:43:00.650Z,97.90
2022-08-02T10:45:30.132Z,97.50
2022-08-02T10:48:04.612Z,97.30
2022-08-02T10:50:56.534Z,95.40
2022-08-02T10:53:27.208Z,94.90
2022-08-02T10:55:57.678Z,95.70
2022-08-02T10:58:30.430Z,95.40
2022-08-02T11:01:01.252Z,95.30
2022-08-02T11:03:41.729Z,95.10
2022-08-02T11:06:24.661Z,94.30
2022-08-02T11:09:31.990Z,94.50
2022-08-02T11:12:04.011Z,94.60
2022-08-02T11:14:33.887Z,94.80
2022-08-02T11:17:14.315Z,94.30
2022-08-02T11:20:17.645Z,91.00
2022-08-02T11:22:48.666Z,86.90
2022-08-02T11:25:54.677Z,86.20
2022-08-02T11:28:25.279Z,77.60
2022-08-02T11:31:04.187Z,73.20
2022-08-02T11:33:33.784Z,66.50
2022-08-02T11:36:04.530Z,59.80
2022-08-02T11:38:36.511Z,52.80
2022-08-02T11:41:10.443Z,50.80
2022-08-02T11:43:39.934Z,48.80
2022-08-02T11:46:15.386Z,47.40
2022-08-02T11:48:45.274Z,42.20
2022-08-02T11:51:15.679Z,43.20
2022-08-02T11:53:50.763Z,42.40
2022-08-02T11:56:24.779Z,41.50
2022-08-02T11:59:07.770Z,40.40
2022-08-02T12:01:45.817Z,38.80
2022-08-02T12:04:22.512Z,37.90
2022-08-02T12:06:59.492Z,37.30
2022-08-02T12:09:31.848Z,38.60
2022-08-02T12:12:02.059Z,40.00
2022-08-02T12:14:32.883Z,41.00
2022-08-02T12:17:18.986Z,41.20
2022-08-02T12:19:49.475Z,40.60
2022-08-02T12:22:20.311Z,40.00
2022-08-02T12:24:56.803Z,38.30
2022-08-02T12:27:34.055Z,38.20
2022-08-02T12:30:08.635Z,36.90
2022-08-02T12:32:38.056Z,35.70
2022-08-02T12:35:09.941Z,34.80
2022-08-02T12:37:40.887Z,31.20
2022-08-02T12:40:25.217Z,30.90
2022-08-02T12:42:57.701Z,30.00
2022-08-02T12:45:41.297Z,29.50
2022-08-02T12:48:11.031Z,29.60
2022-08-02T12:50:40.441Z,29.90
2022-08-02T12:53:10.966Z,29.50
2022-08-02T12:55:59.874Z,29.30
2022-08-02T12:58:31.848Z,27.30
2022-08-02T13:01:02.564Z,28.00
2022-08-02T13:04:07.935Z,27.00
2022-08-02T13:09:15.587Z,27.00
2022-08-02T13:11:46.006Z,26.30
2022-08-02T13:14:15.672Z,25.60
2022-08-02T13:16:46.330Z,25.10
2022-08-02T13:19:16.465Z,25.10
2022-08-02T13:22:01.877Z,24.80
2022-08-02T13:24:40.173Z,25.20
2022-08-02T13:27:23.220Z,25.40
2022-08-02T13:29:52.427Z,24.90
2022-08-02T13:32:22.107Z,24.80
2022-08-02T13:34:51.118Z,24.60
2022-08-02T13:37:19.775Z,24.10
2022-08-02T13:40:11.770Z,23.90
2022-08-02T13:42:38.710Z,24.00
2022-08-02T13:45:12.734Z,23.70
2022-08-02T13:48:04.798Z,23.60
2022-08-02T13:50:33.944Z,24.00
2022-08-02T13:53:02.603Z,24.30
2022-08-02T13:55:31.499Z,23.60
2022-08-02T13:58:01.401Z,23.10
2022-08-02T14:00:34.977Z,23.30
2022-08-02T14:03:06.952Z,23.40
2022-08-02T14:05:46.995Z,23.30
2022-08-02T14:08:17.373Z,22.10
2022-08-02T14:10:46.834Z,22.80
2022-08-02T14:13:16.991Z,22.50
2022-08-02T14:15:46.103Z,21.80
2022-08-02T14:18:15.654Z,21.80
2022-08-02T14:20:46.304Z,21.30
2022-08-02T14:23:15.192Z,21.20
2022-08-02T14:25:43.880Z,20.90
2022-08-02T14:28:12.410Z,20.70
2022-08-02T14:30:42.378Z,20.40
2022-08-02T14:33:11.115Z,20.10
2022-08-02T14:35:39.719Z,20.20
2022-08-02T14:38:08.367Z,20.70
2022-08-02T14:40:36.968Z,20.80
2022-08-02T14:43:05.931Z,19.50
2022-08-02T14:45:40.814Z,19.30
2022-08-02T14:48:12.736Z,18.80
2022-08-02T14:50:41.522Z,19.20
2022-08-02T14:53:12.472Z,19.20
2022-08-02T14:55:43.199Z,18.80
2022-08-02T14:58:12.279Z,18.50
2022-08-02T15:00:42.722Z,18.70
2022-08-02T15:03:13.879Z,17.90
2022-08-02T15:05:42.630Z,18.80
2022-08-02T15:08:11.208Z,18.60
2022-08-02T15:10:45.629Z,18.70
2022-08-02T15:13:14.458Z,17.80
2022-08-02T15:15:43.828Z,17.30
2022-08-02T15:18:15.299Z,18.10
2022-08-02T15:20:57.199Z,17.20
2022-08-02T15:23:34.823Z,17.10
2022-08-02T15:26:06.511Z,17.00
2022-08-02T15:28:35.930Z,17.40
2022-08-02T15:31:05.319Z,17.00
2022-08-02T15:33:35.924Z,16.40
2022-08-02T15:36:05.638Z,16.30
2022-08-02T15:38:35.467Z,17.00
2022-08-02T15:41:05.097Z,17.20
2022-08-02T15:44:00.033Z,17.70
2022-08-02T15:46:30.837Z,18.20
2022-08-02T15:49:02.949Z,17.70
2022-08-02T15:51:32.276Z,17.00
2022-08-02T15:54:02.183Z,16.30
2022-08-02T15:56:31.460Z,16.20
2022-08-02T15:59:00.863Z,16.40
2022-08-02T16:01:37.615Z,15.80
2022-08-02T16:04:09.652Z,16.70
2022-08-02T16:06:38.815Z,16.30
2022-08-02T16:09:07.937Z,17.00
2022-08-02T16:11:37.004Z,16.50
2022-08-02T16:14:06.411Z,16.00
2022-08-02T16:16:37.304Z,16.00
2022-08-02T16:19:47.552Z,15.90
2022-08-02T16:21:58.348Z,15.90
2022-08-02T16:24:27.879Z,15.00
2022-08-02T16:26:57.180Z,14.90
2022-08-02T16:29:25.916Z,15.20
2022-08-02T16:31:54.397Z,15.90
2022-08-02T16:34:24.593Z,14.90
2022-08-02T16:36:53.228Z,14.40
2022-08-02T16:39:21.846Z,14.20
2022-08-02T16:41:52.648Z,15.00
2022-08-02T16:44:29.077Z,15.90
2022-08-02T16:47:01.058Z,15.80
2022-08-02T16:50:04.188Z,15.90
2022-08-02T16:52:20.963Z,15.50
2022-08-02T16:54:50.269Z,15.80
2022-08-02T16:57:19.881Z,16.10
2022-08-02T16:59:57.639Z,15.60
2022-08-02T17:02:27.825Z,15.70
2022-08-02T17:04:58.189Z,16.30
2022-08-02T17:08:07.808Z,15.50
2022-08-02T17:10:18.778Z,15.30
2022-08-02T17:12:51.274Z,15.50
2022-08-02T17:16:00.814Z,15.50
2022-08-02T17:18:08.982Z,15.80
2022-08-02T17:20:39.151Z,16.30
2022-08-02T17:23:09.129Z,16.30
2022-08-02T17:25:45.068Z,16.20
2022-08-02T17:28:21.680Z,17.30
2022-08-02T17:31:00.873Z,17.00
2022-08-02T17:33:29.500Z,17.10
2022-08-02T17:36:01.562Z,17.40
2022-08-02T17:38:31.746Z,17.50
2022-08-02T17:41:00.785Z,17.80
2022-08-02T17:43:33.101Z,17.90
2022-08-02T17:46:08.327Z,18.20
2022-08-02T17:48:55.031Z,18.80
2022-08-02T17:52:15.690Z,19.70
2022-08-02T17:54:15.037Z,20.30
2022-08-02T17:56:48.351Z,21.00
2022-08-02T17:59:20.584Z,21.90
2022-08-02T18:01:53.251Z,22.60
2022-08-02T18:04:27.485Z,23.20
2022-08-02T18:06:59.183Z,24.10
2022-08-02T18:09:34.695Z,24.00
2022-08-02T18:12:03.390Z,24.40
2022-08-02T18:14:32.075Z,24.90
2022-08-02T18:17:00.902Z,25.50
2022-08-02T18:19:33.131Z,25.90
2022-08-02T18:22:12.534Z,26.40
2022-08-02T18:24:41.730Z,27.10
2022-08-02T18:27:14.347Z,27.50
2022-08-02T18:29:43.030Z,27.90
2022-08-02T18:32:15.945Z,28.20
2022-08-02T18:35:04.609Z,28.20
2022-08-02T18:37:43.925Z,28.70
2022-08-02T18:40:15.074Z,29.20
2022-08-02T18:42:43.633Z,29.70
2022-08-02T18:45:20.047Z,30.00
2022-08-02T18:50:39.174Z,31.10
2022-08-02T18:53:09.430Z,31.50
2022-08-02T18:56:00.229Z,32.20
2022-08-02T18:58:30.011Z,32.90
2022-08-02T19:01:00.168Z,33.50
2022-08-02T19:03:37.191Z,34.10
2022-08-02T19:06:06.787Z,34.50
2022-08-02T19:08:37.462Z,34.90
2022-08-02T19:11:07.649Z,35.70
2022-08-02T19:16:25.316Z,36.60
2022-08-02T19:19:06.315Z,36.80
2022-08-02T19:22:16.586Z,37.20
2022-08-02T19:24:25.405Z,37.90
2022-08-02T19:26:55.142Z,38.30
2022-08-02T19:29:42.028Z,38.60
2022-08-02T19:32:40.113Z,39.10
2022-08-02T19:35:02.178Z,39.80
2022-08-02T19:37:37.072Z,40.40
2022-08-02T19:40:10.165Z,40.80
2022-08-02T19:44:20.496Z,41.00
2022-08-02T19:45:45.117Z,41.50
2022-08-02T19:48:17.370Z,41.70
2022-08-02T19:50:49.071Z,41.90
2022-08-02T19:53:18.495Z,42.40
2022-08-02T19:56:00.000Z,42.60
2022-08-02T19:58:30.783Z,43.80
2022-08-02T20:01:01.336Z,43.20
2022-08-02T20:03:52.640Z,43.70
2022-08-02T20:06:18.616Z,44.30
2022-08-02T20:08:53.292Z,44.60
2022-08-02T20:11:27.260Z,45.10
2022-08-02T20:13:55.789Z,45.30
2022-08-02T20:16:27.933Z,45.60
2022-08-02T20:18:57.109Z,45.90
2022-08-02T20:21:36.266Z,46.40
2022-08-02T20:24:07.397Z,46.80
2022-08-02T20:26:39.813Z,47.20
2022-08-02T20:29:17.574Z,47.70
2022-08-02T20:32:08.643Z,48.10
2022-08-02T20:34:37.312Z,48.40
2022-08-02T20:37:59.129Z,48.90
2022-08-02T20:39:54.500Z,49.30
2022-08-02T20:42:25.802Z,49.60
2022-08-02T20:44:55.518Z,50.10
2022-08-02T20:47:27.597Z,50.50
2022-08-02T20:50:28.114Z,50.70
2022-08-02T20:53:00.640Z,51.10
2022-08-02T20:55:30.811Z,51.70
2022-08-02T20:58:02.842Z,52.20
2022-08-02T21:00:32.773Z,52.60
2022-08-02T21:03:02.796Z,53.10
2022-08-02T21:05:54.333Z,53.60
2022-08-02T21:08:22.519Z,54.00
2022-08-02T21:10:53.404Z,54.20
2022-08-02T21:13:26.233Z,54.60
2022-08-02T21:15:57.084Z,54.80
2022-08-02T21:18:40.232Z,55.10
2022-08-02T21:21:10.829Z,55.50
2022-08-02T21:23:48.542Z,56.00
2022-08-02T21:26:27.890Z,56.10
2022-08-02T21:29:03.229Z,56.70
2022-08-02T21:31:35.751Z,56.80
2022-08-02T21:34:27.265Z,57.10
2022-08-02T21:36:56.566Z,57.50
2022-08-02T21:39:25.308Z,57.60
2022-08-02T21:41:54.361Z,58.40
2022-08-02T21:44:24.867Z,58.60
2022-08-02T21:46:55.501Z,58.80
2022-08-02T21:49:40.534Z,59.20
2022-08-02T21:52:10.197Z,59.40
2022-08-02T21:54:40.411Z,59.70
2022-08-02T21:57:15.137Z,60.50
2022-08-02T21:59:46.860Z,60.70
2022-08-02T22:02:16.704Z,61.10
2022-08-02T22:04:48.066Z,61.70
2022-08-02T22:07:24.068Z,62.80
2022-08-02T22:09:53.341Z,62.60
2022-08-02T22:12:25.879Z,63.20
2022-08-02T22:15:00.619Z,63.60
2022-08-02T22:17:50.955Z,64.40
2022-08-02T22:20:20.796Z,64.60
2022-08-02T22:22:51.122Z,65.20
2022-08-02T22:25:31.558Z,66.10
2022-08-02T22:28:37.983Z,67.60
2022-08-02T22:30:59.868Z,68.90
2022-08-02T22:33:59.841Z,71.50
2022-08-02T22:36:30.528Z,73.70
2022-08-02T22:38:59.372Z,76.00
2022-08-02T22:42:00.180Z,77.30
2022-08-02T22:44:17.653Z,77.80
2022-08-02T22:46:50.149Z,78.60
2022-08-02T22:49:38.466Z,79.70
2022-08-02T22:52:10.619Z,80.10
2022-08-02T22:54:39.547Z,81.80
2022-08-02T22:57:11.084Z,82.50
2022-08-02T22:58:45.466Z,30.60
2022-08-02T22:58:47.333Z,36.20
2022-08-02T22:59:41.564Z,83.10
2022-08-02T23:02:12.299Z,84.10
2022-08-02T23:04:41.076Z,85.20
2022-08-02T23:07:09.711Z,85.80
2022-08-02T23:09:38.698Z,87.30
2022-08-02T23:12:07.582Z,88.90
2022-08-02T23:14:36.860Z,89.60
2022-08-02T23:17:23.368Z,90.40
2022-08-02T23:19:53.403Z,91.00
2022-08-02T23:22:29.209Z,91.40
2022-08-02T23:25:00.244Z,92.20
2022-08-02T23:27:29.412Z,92.30
2022-08-02T23:29:58.941Z,92.50
2022-08-02T23:32:28.588Z,92.90
2022-08-02T23:34:59.202Z,93.10
2022-08-02T23:37:27.726Z,93.50
2022-08-02T23:39:56.852Z,94.40
2022-08-02T23:42:25.830Z,95.10
2022-08-02T23:44:54.975Z,95.90
2022-08-02T23:47:23.659Z,96.60
2022-08-02T23:49:52.208Z,97.10
2022-08-02T23:52:22.170Z,97.70
2022-08-02T23:54:50.634Z,98.10
2022-08-02T23:57:20.847Z,99.10
2022-08-02T23:59:51.412Z,99.90
